sensor_id;sensor_type;location;lat;lon;timestamp;temperature;humidity
18177;DHT22;9213;50.858;3.964;2023-02-14T00:00:03;9.80;57.00
18177;DHT22;9213;50.858;3.964;2023-02-14T00:02:31;9.70;57.10
18177;DHT22;9213;50.858;3.964;2023-02-14T00:04:58;9.70;57.10
18177;DHT22;9213;50.858;3.964;2023-02-14T00:07:25;9.70;57.10
18177;DHT22;9213;50.858;3.964;2023-02-14T00:09:52;9.70;57.20
18177;DHT22;9213;50.858;3.964;2023-02-14T00:12:19;9.60;57.20
18177;DHT22;9213;50.858;3.964;2023-02-14T00:14:46;9.60;57.20
18177;DHT22;9213;50.858;3.964;2023-02-14T00:17:31;9.60;57.30
18177;DHT22;9213;50.858;3.964;2023-02-14T00:19:58;9.60;57.20
18177;DHT22;9213;50.858;3.964;2023-02-14T00:22:25;9.50;57.10
18177;DHT22;9213;50.858;3.964;2023-02-14T00:24:52;9.50;57.10
18177;DHT22;9213;50.858;3.964;2023-02-14T00:27:19;9.50;57.10
18177;DHT22;9213;50.858;3.964;2023-02-14T00:29:46;9.50;57.10
18177;DHT22;9213;50.858;3.964;2023-02-14T00:32:13;9.40;56.90
18177;DHT22;9213;50.858;3.964;2023-02-14T00:34:41;9.40;56.90
18177;DHT22;9213;50.858;3.964;2023-02-14T00:37:08;9.30;57.10
18177;DHT22;9213;50.858;3.964;2023-02-14T00:39:35;9.30;57.10
18177;DHT22;9213;50.858;3.964;2023-02-14T00:42:02;9.30;57.20
18177;DHT22;9213;50.858;3.964;2023-02-14T00:44:29;9.30;57.30
18177;DHT22;9213;50.858;3.964;2023-02-14T00:46:56;9.20;57.30
18177;DHT22;9213;50.858;3.964;2023-02-14T00:49:23;9.20;57.50
18177;DHT22;9213;50.858;3.964;2023-02-14T00:51:51;9.20;57.40
18177;DHT22;9213;50.858;3.964;2023-02-14T00:54:18;9.20;57.50
18177;DHT22;9213;50.858;3.964;2023-02-14T00:56:45;9.20;57.50
18177;DHT22;9213;50.858;3.964;2023-02-14T00:59:12;9.10;57.30
18177;DHT22;9213;50.858;3.964;2023-02-14T01:01:39;9.10;57.20
18177;DHT22;9213;50.858;3.964;2023-02-14T01:04:06;9.00;57.00
18177;DHT22;9213;50.858;3.964;2023-02-14T01:06:33;9.00;57.00
18177;DHT22;9213;50.858;3.964;2023-02-14T01:09:02;8.90;56.80
18177;DHT22;9213;50.858;3.964;2023-02-14T01:11:29;8.90;57.60
18177;DHT22;9213;50.858;3.964;2023-02-14T01:13:56;8.80;56.70
18177;DHT22;9213;50.858;3.964;2023-02-14T01:16:25;8.80;56.70
18177;DHT22;9213;50.858;3.964;2023-02-14T01:18:53;8.70;56.70
18177;DHT22;9213;50.858;3.964;2023-02-14T01:21:21;8.70;56.80
18177;DHT22;9213;50.858;3.964;2023-02-14T01:23:51;8.60;56.70
18177;DHT22;9213;50.858;3.964;2023-02-14T01:26:20;8.60;56.80
18177;DHT22;9213;50.858;3.964;2023-02-14T01:28:48;8.50;56.80
18177;DHT22;9213;50.858;3.964;2023-02-14T01:31:17;8.50;56.90
18177;DHT22;9213;50.858;3.964;2023-02-14T01:33:45;8.40;57.50
18177;DHT22;9213;50.858;3.964;2023-02-14T01:36:16;8.40;56.80
18177;DHT22;9213;50.858;3.964;2023-02-14T01:38:44;8.30;56.80
18177;DHT22;9213;50.858;3.964;2023-02-14T01:41:11;8.30;56.70
18177;DHT22;9213;50.858;3.964;2023-02-14T01:43:58;8.30;56.70
18177;DHT22;9213;50.858;3.964;2023-02-14T01:46:27;8.30;56.80
18177;DHT22;9213;50.858;3.964;2023-02-14T01:49:00;8.20;56.60
18177;DHT22;9213;50.858;3.964;2023-02-14T01:51:28;8.10;56.70
18177;DHT22;9213;50.858;3.964;2023-02-14T01:53:56;8.10;56.60
18177;DHT22;9213;50.858;3.964;2023-02-14T01:56:27;8.10;56.70
18177;DHT22;9213;50.858;3.964;2023-02-14T01:58:59;8.00;56.60
18177;DHT22;9213;50.858;3.964;2023-02-14T02:01:28;8.00;56.60
18177;DHT22;9213;50.858;3.964;2023-02-14T02:03:58;7.90;56.60
18177;DHT22;9213;50.858;3.964;2023-02-14T02:06:29;7.90;56.70
18177;DHT22;9213;50.858;3.964;2023-02-14T02:09:04;7.90;56.80
18177;DHT22;9213;50.858;3.964;2023-02-14T02:11:34;7.90;56.90
18177;DHT22;9213;50.858;3.964;2023-02-14T02:14:12;7.90;56.80
18177;DHT22;9213;50.858;3.964;2023-02-14T02:16:50;7.90;56.90
18177;DHT22;9213;50.858;3.964;2023-02-14T02:19:40;7.90;56.90
18177;DHT22;9213;50.858;3.964;2023-02-14T02:22:30;7.90;56.90
18177;DHT22;9213;50.858;3.964;2023-02-14T02:25:10;7.80;56.80
18177;DHT22;9213;50.858;3.964;2023-02-14T02:28:06;7.80;57.00
18177;DHT22;9213;50.858;3.964;2023-02-14T02:30:59;7.90;57.20
18177;DHT22;9213;50.858;3.964;2023-02-14T02:34:05;7.90;57.10
18177;DHT22;9213;50.858;3.964;2023-02-14T02:36:50;7.90;57.20
18177;DHT22;9213;50.858;3.964;2023-02-14T02:39:29;7.90;57.20
18177;DHT22;9213;50.858;3.964;2023-02-14T02:42:05;7.90;57.40
18177;DHT22;9213;50.858;3.964;2023-02-14T02:44:42;7.90;57.50
18177;DHT22;9213;50.858;3.964;2023-02-14T02:47:16;7.80;57.40
18177;DHT22;9213;50.858;3.964;2023-02-14T02:49:52;7.80;57.50
18177;DHT22;9213;50.858;3.964;2023-02-14T02:52:43;7.90;57.60
18177;DHT22;9213;50.858;3.964;2023-02-14T02:55:37;7.90;57.60
18177;DHT22;9213;50.858;3.964;2023-02-14T02:58:26;7.80;57.50
18177;DHT22;9213;50.858;3.964;2023-02-14T03:00:56;7.80;57.60
18177;DHT22;9213;50.858;3.964;2023-02-14T03:03:25;7.80;57.60
18177;DHT22;9213;50.858;3.964;2023-02-14T03:06:11;7.80;57.80
18177;DHT22;9213;50.858;3.964;2023-02-14T03:08:39;7.80;57.60
18177;DHT22;9213;50.858;3.964;2023-02-14T03:11:06;7.80;57.80
18177;DHT22;9213;50.858;3.964;2023-02-14T03:13:53;7.80;57.80
18177;DHT22;9213;50.858;3.964;2023-02-14T03:16:34;7.80;57.90
18177;DHT22;9213;50.858;3.964;2023-02-14T03:19:25;7.80;57.80
18177;DHT22;9213;50.858;3.964;2023-02-14T03:22:19;7.80;57.80
18177;DHT22;9213;50.858;3.964;2023-02-14T03:24:55;7.80;57.70
18177;DHT22;9213;50.858;3.964;2023-02-14T03:27:26;7.80;57.90
18177;DHT22;9213;50.858;3.964;2023-02-14T03:29:57;7.70;58.10
18177;DHT22;9213;50.858;3.964;2023-02-14T03:32:32;7.70;58.20
18177;DHT22;9213;50.858;3.964;2023-02-14T03:35:08;7.70;58.30
18177;DHT22;9213;50.858;3.964;2023-02-14T03:37:40;7.70;58.30
18177;DHT22;9213;50.858;3.964;2023-02-14T03:40:15;7.70;58.30
18177;DHT22;9213;50.858;3.964;2023-02-14T03:42:49;7.70;58.30
18177;DHT22;9213;50.858;3.964;2023-02-14T03:45:22;7.70;58.30
18177;DHT22;9213;50.858;3.964;2023-02-14T03:47:50;7.70;58.40
18177;DHT22;9213;50.858;3.964;2023-02-14T03:50:19;7.70;58.50
18177;DHT22;9213;50.858;3.964;2023-02-14T03:52:49;7.70;58.50
18177;DHT22;9213;50.858;3.964;2023-02-14T03:55:23;7.70;58.70
18177;DHT22;9213;50.858;3.964;2023-02-14T03:57:56;7.70;58.70
18177;DHT22;9213;50.858;3.964;2023-02-14T04:00:25;7.70;58.70
18177;DHT22;9213;50.858;3.964;2023-02-14T04:02:55;7.70;58.70
18177;DHT22;9213;50.858;3.964;2023-02-14T04:05:26;7.70;58.70
18177;DHT22;9213;50.858;3.964;2023-02-14T04:07:55;7.70;58.70
18177;DHT22;9213;50.858;3.964;2023-02-14T04:10:24;7.60;58.60
18177;DHT22;9213;50.858;3.964;2023-02-14T04:12:51;7.60;58.60
18177;DHT22;9213;50.858;3.964;2023-02-14T04:15:19;7.60;58.60
18177;DHT22;9213;50.858;3.964;2023-02-14T04:17:45;7.60;58.60
18177;DHT22;9213;50.858;3.964;2023-02-14T04:20:30;7.60;58.60
18177;DHT22;9213;50.858;3.964;2023-02-14T04:22:57;7.50;58.50
18177;DHT22;9213;50.858;3.964;2023-02-14T04:25:26;7.50;58.50
18177;DHT22;9213;50.858;3.964;2023-02-14T04:27:53;7.50;58.60
18177;DHT22;9213;50.858;3.964;2023-02-14T04:30:20;7.40;58.50
18177;DHT22;9213;50.858;3.964;2023-02-14T04:32:48;7.40;58.50
18177;DHT22;9213;50.858;3.964;2023-02-14T04:35:15;7.40;58.60
18177;DHT22;9213;50.858;3.964;2023-02-14T04:37:42;7.30;58.60
18177;DHT22;9213;50.858;3.964;2023-02-14T04:40:09;7.40;58.60
18177;DHT22;9213;50.858;3.964;2023-02-14T04:42:38;7.30;58.60
18177;DHT22;9213;50.858;3.964;2023-02-14T04:45:05;7.30;58.60
18177;DHT22;9213;50.858;3.964;2023-02-14T04:47:32;7.30;58.70
18177;DHT22;9213;50.858;3.964;2023-02-14T04:49:59;7.30;58.70
18177;DHT22;9213;50.858;3.964;2023-02-14T04:52:26;7.20;58.70
18177;DHT22;9213;50.858;3.964;2023-02-14T04:54:53;7.20;58.70
18177;DHT22;9213;50.858;3.964;2023-02-14T04:57:20;7.20;58.70
18177;DHT22;9213;50.858;3.964;2023-02-14T04:59:48;7.20;58.70
18177;DHT22;9213;50.858;3.964;2023-02-14T05:02:15;7.20;58.80
18177;DHT22;9213;50.858;3.964;2023-02-14T05:04:42;7.20;58.80
18177;DHT22;9213;50.858;3.964;2023-02-14T05:07:09;7.10;58.80
18177;DHT22;9213;50.858;3.964;2023-02-14T05:09:36;7.10;58.90
18177;DHT22;9213;50.858;3.964;2023-02-14T05:12:03;7.10;59.00
18177;DHT22;9213;50.858;3.964;2023-02-14T05:14:29;7.10;59.00
18177;DHT22;9213;50.858;3.964;2023-02-14T05:16:58;7.10;59.10
18177;DHT22;9213;50.858;3.964;2023-02-14T05:19:25;7.10;59.20
18177;DHT22;9213;50.858;3.964;2023-02-14T05:21:52;7.10;59.10
18177;DHT22;9213;50.858;3.964;2023-02-14T05:24:19;7.10;59.20
18177;DHT22;9213;50.858;3.964;2023-02-14T05:26:45;7.10;59.20
18177;DHT22;9213;50.858;3.964;2023-02-14T05:29:12;7.10;59.20
18177;DHT22;9213;50.858;3.964;2023-02-14T05:31:39;7.10;59.30
18177;DHT22;9213;50.858;3.964;2023-02-14T05:34:07;7.10;59.30
18177;DHT22;9213;50.858;3.964;2023-02-14T05:36:34;7.10;59.30
18177;DHT22;9213;50.858;3.964;2023-02-14T05:39:02;7.10;59.30
18177;DHT22;9213;50.858;3.964;2023-02-14T05:41:29;7.10;59.40
18177;DHT22;9213;50.858;3.964;2023-02-14T05:43:56;7.10;59.30
18177;DHT22;9213;50.858;3.964;2023-02-14T05:46:22;7.10;59.30
18177;DHT22;9213;50.858;3.964;2023-02-14T05:48:50;7.10;59.40
18177;DHT22;9213;50.858;3.964;2023-02-14T05:51:18;7.10;59.40
18177;DHT22;9213;50.858;3.964;2023-02-14T05:53:45;7.10;59.40
18177;DHT22;9213;50.858;3.964;2023-02-14T05:56:12;7.00;59.30
18177;DHT22;9213;50.858;3.964;2023-02-14T05:58:39;7.00;59.30
18177;DHT22;9213;50.858;3.964;2023-02-14T06:01:05;7.00;59.30
18177;DHT22;9213;50.858;3.964;2023-02-14T06:03:32;7.00;59.30
18177;DHT22;9213;50.858;3.964;2023-02-14T06:05:59;7.00;59.40
18177;DHT22;9213;50.858;3.964;2023-02-14T06:08:27;7.00;59.40
18177;DHT22;9213;50.858;3.964;2023-02-14T06:10:54;7.00;59.40
18177;DHT22;9213;50.858;3.964;2023-02-14T06:13:21;7.00;59.30
18177;DHT22;9213;50.858;3.964;2023-02-14T06:15:49;7.00;59.40
18177;DHT22;9213;50.858;3.964;2023-02-14T06:18:16;6.90;59.40
18177;DHT22;9213;50.858;3.964;2023-02-14T06:20:43;6.90;59.40
18177;DHT22;9213;50.858;3.964;2023-02-14T06:23:10;6.90;59.40
18177;DHT22;9213;50.858;3.964;2023-02-14T06:25:38;6.90;59.40
18177;DHT22;9213;50.858;3.964;2023-02-14T06:28:05;6.90;59.40
18177;DHT22;9213;50.858;3.964;2023-02-14T06:30:32;6.90;59.30
18177;DHT22;9213;50.858;3.964;2023-02-14T06:32:59;6.80;59.30
18177;DHT22;9213;50.858;3.964;2023-02-14T06:35:26;6.80;59.30
18177;DHT22;9213;50.858;3.964;2023-02-14T06:37:53;6.80;59.30
18177;DHT22;9213;50.858;3.964;2023-02-14T06:40:20;6.80;59.40
18177;DHT22;9213;50.858;3.964;2023-02-14T06:42:48;6.80;59.50
18177;DHT22;9213;50.858;3.964;2023-02-14T06:45:15;6.70;59.50
18177;DHT22;9213;50.858;3.964;2023-02-14T06:47:42;6.70;59.50
18177;DHT22;9213;50.858;3.964;2023-02-14T06:50:09;6.70;59.50
18177;DHT22;9213;50.858;3.964;2023-02-14T06:52:37;6.70;59.50
18177;DHT22;9213;50.858;3.964;2023-02-14T06:55:05;6.70;59.50
18177;DHT22;9213;50.858;3.964;2023-02-14T06:57:32;6.70;59.50
18177;DHT22;9213;50.858;3.964;2023-02-14T07:00:00;6.70;59.50
18177;DHT22;9213;50.858;3.964;2023-02-14T07:02:27;6.70;59.50
18177;DHT22;9213;50.858;3.964;2023-02-14T07:04:54;6.70;59.50
18177;DHT22;9213;50.858;3.964;2023-02-14T07:07:21;6.70;59.40
18177;DHT22;9213;50.858;3.964;2023-02-14T07:09:48;6.70;59.40
18177;DHT22;9213;50.858;3.964;2023-02-14T07:12:14;6.70;59.40
18177;DHT22;9213;50.858;3.964;2023-02-14T07:14:41;6.70;59.40
18177;DHT22;9213;50.858;3.964;2023-02-14T07:17:10;6.70;59.40
18177;DHT22;9213;50.858;3.964;2023-02-14T07:19:36;6.70;59.50
18177;DHT22;9213;50.858;3.964;2023-02-14T07:22:03;6.70;59.50
18177;DHT22;9213;50.858;3.964;2023-02-14T07:24:30;6.70;59.50
18177;DHT22;9213;50.858;3.964;2023-02-14T07:26:57;6.80;59.40
18177;DHT22;9213;50.858;3.964;2023-02-14T07:29:24;6.80;59.50
18177;DHT22;9213;50.858;3.964;2023-02-14T07:31:51;6.80;59.60
18177;DHT22;9213;50.858;3.964;2023-02-14T07:34:19;6.90;59.60
18177;DHT22;9213;50.858;3.964;2023-02-14T07:36:46;6.90;59.50
18177;DHT22;9213;50.858;3.964;2023-02-14T07:39:13;7.00;59.40
18177;DHT22;9213;50.858;3.964;2023-02-14T07:41:40;7.00;59.40
18177;DHT22;9213;50.858;3.964;2023-02-14T07:44:07;7.00;59.30
18177;DHT22;9213;50.858;3.964;2023-02-14T07:46:34;7.10;59.30
18177;DHT22;9213;50.858;3.964;2023-02-14T07:49:01;7.10;59.20
18177;DHT22;9213;50.858;3.964;2023-02-14T07:51:29;7.10;59.20
18177;DHT22;9213;50.858;3.964;2023-02-14T07:53:56;7.20;59.30
18177;DHT22;9213;50.858;3.964;2023-02-14T07:56:23;7.20;59.20
18177;DHT22;9213;50.858;3.964;2023-02-14T07:58:50;7.30;59.20
18177;DHT22;9213;50.858;3.964;2023-02-14T08:01:17;7.40;59.20
18177;DHT22;9213;50.858;3.964;2023-02-14T08:03:45;7.40;59.10
18177;DHT22;9213;50.858;3.964;2023-02-14T08:06:14;7.50;59.00
18177;DHT22;9213;50.858;3.964;2023-02-14T08:08:42;7.50;58.90
18177;DHT22;9213;50.858;3.964;2023-02-14T08:11:09;7.60;58.90
18177;DHT22;9213;50.858;3.964;2023-02-14T08:13:36;7.70;58.80
18177;DHT22;9213;50.858;3.964;2023-02-14T08:16:03;7.70;58.70
18177;DHT22;9213;50.858;3.964;2023-02-14T08:18:33;7.80;58.60
18177;DHT22;9213;50.858;3.964;2023-02-14T08:21:00;8.00;58.70
18177;DHT22;9213;50.858;3.964;2023-02-14T08:23:28;8.10;58.70
18177;DHT22;9213;50.858;3.964;2023-02-14T08:25:56;8.30;58.60
18177;DHT22;9213;50.858;3.964;2023-02-14T08:28:24;8.60;58.20
18177;DHT22;9213;50.858;3.964;2023-02-14T08:30:51;8.90;57.70
18177;DHT22;9213;50.858;3.964;2023-02-14T08:33:19;9.20;57.10
18177;DHT22;9213;50.858;3.964;2023-02-14T08:35:46;9.50;56.60
18177;DHT22;9213;50.858;3.964;2023-02-14T08:38:13;9.90;55.90
18177;DHT22;9213;50.858;3.964;2023-02-14T08:40:40;10.10;55.20
18177;DHT22;9213;50.858;3.964;2023-02-14T08:43:09;10.40;54.50
18177;DHT22;9213;50.858;3.964;2023-02-14T08:45:36;10.70;54.00
18177;DHT22;9213;50.858;3.964;2023-02-14T08:48:05;10.90;53.40
18177;DHT22;9213;50.858;3.964;2023-02-14T08:50:33;11.20;53.00
18177;DHT22;9213;50.858;3.964;2023-02-14T08:53:00;11.50;52.40
18177;DHT22;9213;50.858;3.964;2023-02-14T08:55:33;11.70;51.80
18177;DHT22;9213;50.858;3.964;2023-02-14T08:58:00;12.00;51.40
18177;DHT22;9213;50.858;3.964;2023-02-14T09:00:29;12.10;51.00
18177;DHT22;9213;50.858;3.964;2023-02-14T09:02:56;12.30;51.40
18177;DHT22;9213;50.858;3.964;2023-02-14T09:05:23;12.50;50.40
18177;DHT22;9213;50.858;3.964;2023-02-14T09:07:52;12.60;50.10
18177;DHT22;9213;50.858;3.964;2023-02-14T09:10:20;12.70;49.90
18177;DHT22;9213;50.858;3.964;2023-02-14T09:12:47;12.80;49.70
18177;DHT22;9213;50.858;3.964;2023-02-14T09:15:14;12.90;49.70
18177;DHT22;9213;50.858;3.964;2023-02-14T09:17:42;13.10;49.60
18177;DHT22;9213;50.858;3.964;2023-02-14T09:20:11;13.30;49.40
18177;DHT22;9213;50.858;3.964;2023-02-14T09:22:39;13.50;49.00
18177;DHT22;9213;50.858;3.964;2023-02-14T09:25:06;13.60;48.60
18177;DHT22;9213;50.858;3.964;2023-02-14T09:27:33;13.80;48.50
18177;DHT22;9213;50.858;3.964;2023-02-14T09:30:00;13.90;48.20
18177;DHT22;9213;50.858;3.964;2023-02-14T09:32:27;14.00;48.00
18177;DHT22;9213;50.858;3.964;2023-02-14T09:34:56;14.20;47.70
18177;DHT22;9213;50.858;3.964;2023-02-14T09:37:23;14.40;47.10
18177;DHT22;9213;50.858;3.964;2023-02-14T09:39:49;14.50;46.80
18177;DHT22;9213;50.858;3.964;2023-02-14T09:45:11;14.70;46.40
18177;DHT22;9213;50.858;3.964;2023-02-14T09:47:43;14.80;45.90
18177;DHT22;9213;50.858;3.964;2023-02-14T09:50:18;14.80;45.80
18177;DHT22;9213;50.858;3.964;2023-02-14T09:52:49;14.90;45.40
18177;DHT22;9213;50.858;3.964;2023-02-14T09:55:17;14.90;45.60
18177;DHT22;9213;50.858;3.964;2023-02-14T09:58:00;15.00;45.40
18177;DHT22;9213;50.858;3.964;2023-02-14T10:00:35;15.20;45.70
18177;DHT22;9213;50.858;3.964;2023-02-14T10:03:20;15.30;45.80
18177;DHT22;9213;50.858;3.964;2023-02-14T10:05:59;15.60;45.30
18177;DHT22;9213;50.858;3.964;2023-02-14T10:08:37;15.80;44.50
18177;DHT22;9213;50.858;3.964;2023-02-14T10:11:07;15.90;44.60
18177;DHT22;9213;50.858;3.964;2023-02-14T10:13:39;16.00;44.40
18177;DHT22;9213;50.858;3.964;2023-02-14T10:16:23;16.20;43.80
18177;DHT22;9213;50.858;3.964;2023-02-14T10:18:55;16.30;43.70
18177;DHT22;9213;50.858;3.964;2023-02-14T10:21:27;16.40;43.30
18177;DHT22;9213;50.858;3.964;2023-02-14T10:24:00;16.60;43.30
18177;DHT22;9213;50.858;3.964;2023-02-14T10:26:35;16.70;42.80
18177;DHT22;9213;50.858;3.964;2023-02-14T10:29:04;16.80;42.80
18177;DHT22;9213;50.858;3.964;2023-02-14T10:31:37;17.00;42.30
18177;DHT22;9213;50.858;3.964;2023-02-14T10:34:11;17.20;41.70
18177;DHT22;9213;50.858;3.964;2023-02-14T10:36:49;17.30;41.70
18177;DHT22;9213;50.858;3.964;2023-02-14T10:39:42;17.50;40.90
18177;DHT22;9213;50.858;3.964;2023-02-14T10:42:21;17.70;41.30
18177;DHT22;9213;50.858;3.964;2023-02-14T10:44:53;17.80;40.10
18177;DHT22;9213;50.858;3.964;2023-02-14T10:47:33;17.90;40.00
18177;DHT22;9213;50.858;3.964;2023-02-14T10:50:07;18.10;39.90
18177;DHT22;9213;50.858;3.964;2023-02-14T10:52:41;18.20;39.70
18177;DHT22;9213;50.858;3.964;2023-02-14T10:55:14;18.40;39.30
18177;DHT22;9213;50.858;3.964;2023-02-14T10:57:45;18.40;39.00
18177;DHT22;9213;50.858;3.964;2023-02-14T11:00:20;18.50;39.00
18177;DHT22;9213;50.858;3.964;2023-02-14T11:02:50;18.60;38.60
18177;DHT22;9213;50.858;3.964;2023-02-14T11:05:24;18.70;38.30
18177;DHT22;9213;50.858;3.964;2023-02-14T11:07:53;18.80;38.20
18177;DHT22;9213;50.858;3.964;2023-02-14T11:10:25;18.90;38.30
18177;DHT22;9213;50.858;3.964;2023-02-14T11:12:54;19.10;38.10
18177;DHT22;9213;50.858;3.964;2023-02-14T11:15:23;19.20;38.00
18177;DHT22;9213;50.858;3.964;2023-02-14T11:18:09;19.30;37.40
18177;DHT22;9213;50.858;3.964;2023-02-14T11:20:39;19.50;37.80
18177;DHT22;9213;50.858;3.964;2023-02-14T11:23:19;19.60;37.60
18177;DHT22;9213;50.858;3.964;2023-02-14T11:25:50;19.80;37.10
18177;DHT22;9213;50.858;3.964;2023-02-14T11:28:18;19.90;37.40
18177;DHT22;9213;50.858;3.964;2023-02-14T11:30:47;20.00;36.80
18177;DHT22;9213;50.858;3.964;2023-02-14T11:33:33;20.10;36.60
18177;DHT22;9213;50.858;3.964;2023-02-14T11:36:00;20.20;36.10
18177;DHT22;9213;50.858;3.964;2023-02-14T11:38:31;20.20;36.30
18177;DHT22;9213;50.858;3.964;2023-02-14T11:41:01;20.30;36.10
18177;DHT22;9213;50.858;3.964;2023-02-14T11:43:30;20.30;36.10
18177;DHT22;9213;50.858;3.964;2023-02-14T11:46:12;20.30;35.70
18177;DHT22;9213;50.858;3.964;2023-02-14T11:48:55;20.40;36.20
18177;DHT22;9213;50.858;3.964;2023-02-14T11:51:26;20.50;36.50
18177;DHT22;9213;50.858;3.964;2023-02-14T11:53:57;20.60;36.00
18177;DHT22;9213;50.858;3.964;2023-02-14T11:56:45;20.60;35.80
18177;DHT22;9213;50.858;3.964;2023-02-14T11:59:23;20.80;36.10
18177;DHT22;9213;50.858;3.964;2023-02-14T12:01:51;20.90;35.50
18177;DHT22;9213;50.858;3.964;2023-02-14T12:04:24;21.00;35.20
18177;DHT22;9213;50.858;3.964;2023-02-14T12:07:12;21.10;35.10
18177;DHT22;9213;50.858;3.964;2023-02-14T12:09:41;21.10;35.30
18177;DHT22;9213;50.858;3.964;2023-02-14T12:12:17;21.20;34.90
18177;DHT22;9213;50.858;3.964;2023-02-14T12:14:44;21.40;34.90
18177;DHT22;9213;50.858;3.964;2023-02-14T12:17:24;21.50;34.80
18177;DHT22;9213;50.858;3.964;2023-02-14T12:19:57;21.60;34.30
18177;DHT22;9213;50.858;3.964;2023-02-14T12:22:30;21.70;34.00
18177;DHT22;9213;50.858;3.964;2023-02-14T12:25:05;21.90;33.90
18177;DHT22;9213;50.858;3.964;2023-02-14T12:27:44;22.00;33.70
18177;DHT22;9213;50.858;3.964;2023-02-14T12:30:16;22.10;33.80
18177;DHT22;9213;50.858;3.964;2023-02-14T12:32:47;22.20;33.40
18177;DHT22;9213;50.858;3.964;2023-02-14T12:35:16;22.30;33.30
18177;DHT22;9213;50.858;3.964;2023-02-14T12:37:51;22.40;33.10
18177;DHT22;9213;50.858;3.964;2023-02-14T12:40:27;22.50;33.20
18177;DHT22;9213;50.858;3.964;2023-02-14T12:43:17;22.50;32.90
18177;DHT22;9213;50.858;3.964;2023-02-14T12:46:07;22.60;33.00
18177;DHT22;9213;50.858;3.964;2023-02-14T12:48:55;22.70;33.20
18177;DHT22;9213;50.858;3.964;2023-02-14T12:51:30;22.80;33.00
18177;DHT22;9213;50.858;3.964;2023-02-14T12:54:15;22.80;32.20
18177;DHT22;9213;50.858;3.964;2023-02-14T12:56:59;22.90;32.30
18177;DHT22;9213;50.858;3.964;2023-02-14T12:59:31;23.00;32.30
18177;DHT22;9213;50.858;3.964;2023-02-14T13:05:18;23.20;32.50
18177;DHT22;9213;50.858;3.964;2023-02-14T13:07:58;23.30;31.90
18177;DHT22;9213;50.858;3.964;2023-02-14T13:10:39;23.30;31.70
18177;DHT22;9213;50.858;3.964;2023-02-14T13:13:17;23.40;31.20
18177;DHT22;9213;50.858;3.964;2023-02-14T13:15:49;23.40;31.50
18177;DHT22;9213;50.858;3.964;2023-02-14T13:18:31;23.40;31.20
18177;DHT22;9213;50.858;3.964;2023-02-14T13:21:02;23.50;31.10
18177;DHT22;9213;50.858;3.964;2023-02-14T13:23:33;23.50;31.30
18177;DHT22;9213;50.858;3.964;2023-02-14T13:26:06;23.50;31.00
18177;DHT22;9213;50.858;3.964;2023-02-14T13:28:37;23.50;30.80
18177;DHT22;9213;50.858;3.964;2023-02-14T13:31:10;23.60;30.50
18177;DHT22;9213;50.858;3.964;2023-02-14T13:33:40;23.60;30.40
18177;DHT22;9213;50.858;3.964;2023-02-14T13:36:09;23.60;30.70
18177;DHT22;9213;50.858;3.964;2023-02-14T13:38:42;23.60;30.70
18177;DHT22;9213;50.858;3.964;2023-02-14T13:41:11;23.70;30.20
18177;DHT22;9213;50.858;3.964;2023-02-14T13:43:51;23.60;30.30
18177;DHT22;9213;50.858;3.964;2023-02-14T13:46:21;23.60;30.40
18177;DHT22;9213;50.858;3.964;2023-02-14T13:49:22;23.50;30.30
18177;DHT22;9213;50.858;3.964;2023-02-14T13:51:52;23.60;30.60
18177;DHT22;9213;50.858;3.964;2023-02-14T13:54:30;23.60;30.30
18177;DHT22;9213;50.858;3.964;2023-02-14T13:56:58;23.60;29.90
18177;DHT22;9213;50.858;3.964;2023-02-14T13:59:29;23.60;30.10
18177;DHT22;9213;50.858;3.964;2023-02-14T14:02:37;23.70;29.90
18177;DHT22;9213;50.858;3.964;2023-02-14T14:08:39;23.80;30.70
18177;DHT22;9213;50.858;3.964;2023-02-14T14:11:11;23.80;30.00
18177;DHT22;9213;50.858;3.964;2023-02-14T14:13:55;23.80;29.60
18177;DHT22;9213;50.858;3.964;2023-02-14T14:16:28;23.80;29.90
18177;DHT22;9213;50.858;3.964;2023-02-14T14:18:59;23.80;30.00
18177;DHT22;9213;50.858;3.964;2023-02-14T14:21:28;23.70;29.70
18177;DHT22;9213;50.858;3.964;2023-02-14T14:24:14;23.70;29.50
18177;DHT22;9213;50.858;3.964;2023-02-14T14:26:45;23.70;29.90
18177;DHT22;9213;50.858;3.964;2023-02-14T14:29:18;23.60;29.80
18177;DHT22;9213;50.858;3.964;2023-02-14T14:31:46;23.60;29.90
18177;DHT22;9213;50.858;3.964;2023-02-14T14:34:22;23.50;30.00
18177;DHT22;9213;50.858;3.964;2023-02-14T14:37:00;23.50;29.80
18177;DHT22;9213;50.858;3.964;2023-02-14T14:39:29;23.40;30.10
18177;DHT22;9213;50.858;3.964;2023-02-14T14:42:05;23.30;29.90
18177;DHT22;9213;50.858;3.964;2023-02-14T14:44:34;23.30;30.30
18177;DHT22;9213;50.858;3.964;2023-02-14T14:47:01;23.20;30.30
18177;DHT22;9213;50.858;3.964;2023-02-14T14:49:31;23.10;30.50
18177;DHT22;9213;50.858;3.964;2023-02-14T14:51:58;23.10;30.50
18177;DHT22;9213;50.858;3.964;2023-02-14T14:54:25;23.00;30.60
18177;DHT22;9213;50.858;3.964;2023-02-14T14:56:54;22.90;30.50
18177;DHT22;9213;50.858;3.964;2023-02-14T14:59:28;22.80;30.60
18177;DHT22;9213;50.858;3.964;2023-02-14T15:01:55;22.70;30.90
18177;DHT22;9213;50.858;3.964;2023-02-14T15:04:25;22.60;30.70
18177;DHT22;9213;50.858;3.964;2023-02-14T15:06:56;22.50;30.90
18177;DHT22;9213;50.858;3.964;2023-02-14T15:09:29;22.40;31.20
18177;DHT22;9213;50.858;3.964;2023-02-14T15:11:57;22.40;31.40
18177;DHT22;9213;50.858;3.964;2023-02-14T15:14:45;22.20;31.50
18177;DHT22;9213;50.858;3.964;2023-02-14T15:17:18;22.10;31.60
18177;DHT22;9213;50.858;3.964;2023-02-14T15:19:47;22.10;31.60
18177;DHT22;9213;50.858;3.964;2023-02-14T15:22:22;21.90;31.50
18177;DHT22;9213;50.858;3.964;2023-02-14T15:24:50;21.90;31.80
18177;DHT22;9213;50.858;3.964;2023-02-14T15:27:19;21.80;31.90
18177;DHT22;9213;50.858;3.964;2023-02-14T15:29:53;21.70;32.10
18177;DHT22;9213;50.858;3.964;2023-02-14T15:32:21;21.60;32.30
18177;DHT22;9213;50.858;3.964;2023-02-14T15:34:48;21.50;32.60
18177;DHT22;9213;50.858;3.964;2023-02-14T15:37:16;21.40;32.80
18177;DHT22;9213;50.858;3.964;2023-02-14T15:39:47;21.30;33.00
18177;DHT22;9213;50.858;3.964;2023-02-14T15:42:22;21.30;33.40
18177;DHT22;9213;50.858;3.964;2023-02-14T15:45:14;21.20;33.30
18177;DHT22;9213;50.858;3.964;2023-02-14T15:47:43;21.10;33.70
18177;DHT22;9213;50.858;3.964;2023-02-14T15:50:14;20.90;33.60
18177;DHT22;9213;50.858;3.964;2023-02-14T15:52:43;20.90;33.80
18177;DHT22;9213;50.858;3.964;2023-02-14T15:55:15;20.80;33.80
18177;DHT22;9213;50.858;3.964;2023-02-14T15:57:44;20.70;34.10
18177;DHT22;9213;50.858;3.964;2023-02-14T16:00:16;20.60;34.30
18177;DHT22;9213;50.858;3.964;2023-02-14T16:02:44;20.60;34.40
18177;DHT22;9213;50.858;3.964;2023-02-14T16:05:16;20.50;34.60
18177;DHT22;9213;50.858;3.964;2023-02-14T16:07:59;20.40;34.70
18177;DHT22;9213;50.858;3.964;2023-02-14T16:10:30;20.30;34.90
18177;DHT22;9213;50.858;3.964;2023-02-14T16:13:01;20.20;35.00
18177;DHT22;9213;50.858;3.964;2023-02-14T16:15:29;20.10;35.20
18177;DHT22;9213;50.858;3.964;2023-02-14T16:17:57;19.90;35.40
18177;DHT22;9213;50.858;3.964;2023-02-14T16:20:45;19.80;35.50
18177;DHT22;9213;50.858;3.964;2023-02-14T16:23:24;19.80;35.70
18177;DHT22;9213;50.858;3.964;2023-02-14T16:25:53;19.60;35.90
18177;DHT22;9213;50.858;3.964;2023-02-14T16:28:22;19.50;36.10
18177;DHT22;9213;50.858;3.964;2023-02-14T16:30:53;19.40;36.30